Time;durP1;ratioP1;P1;durP2;ratioP2;P2;SDS_P1;SDS_P2;PMS_P1;PMS_P2;Temp;Humidity;BMP_temperature;BMP_pressure;BME280_temperature;BME280_humidity;BME280_pressure;Samples;Min_cycle;Max_cycle;Signal;HPM_P1;HPM_P2
2022/05/19 05:30:51;;;;;;;4.65;3.83;;;;;;;11.90;73.50;100633.90;1735477;82;21129;-48
2022/05/19 05:33:19;;;;;;;5.85;4.42;;;;;;;11.99;73.15;100633.87;1731177;81;21049;-41
2022/05/19 05:35:46;;;;;;;6.55;3.83;;;;;;;12.03;71.30;100639.56;1723829;82;21070;-41
2022/05/19 05:38:13;;;;;;;5.05;3.80;;;;;;;12.05;72.38;100639.12;1732963;81;21086;-43
2022/05/19 05:40:39;;;;;;;6.17;3.80;;;;;;;12.08;72.43;100644.37;1747038;81;21558;-41
2022/05/19 05:43:08;;;;;;;7.92;3.52;;;;;;;12.17;72.87;100643.04;1731176;81;21112;-40
2022/05/19 05:45:36;;;;;;;6.92;3.33;;;;;;;12.30;71.47;100646.98;1730564;81;21085;-48
2022/05/19 05:48:04;;;;;;;7.12;4.20;;;;;;;12.40;71.58;100646.94;1723641;81;21053;-41
2022/05/19 05:50:31;;;;;;;6.95;3.45;;;;;;;12.49;70.28;100652.62;1720779;83;20951;-40
2022/05/19 05:52:58;;;;;;;6.50;4.15;;;;;;;12.55;69.37;100653.92;1712258;82;21575;-41
2022/05/19 05:55:26;;;;;;;6.30;3.72;;;;;;;12.61;71.45;100649.97;1729566;81;21489;-40
2022/05/19 05:57:53;;;;;;;5.25;3.87;;;;;;;12.70;70.96;100655.20;1739769;82;21065;-41
2022/05/19 06:00:20;;;;;;;9.63;3.47;;;;;;;12.79;69.71;100655.16;1733662;82;21058;-40
2022/05/19 06:02:49;;;;;;;14.47;3.77;;;;;;;12.89;68.63;100663.89;1733037;81;21599;-48
2022/05/19 06:05:16;;;;;;;5.33;3.65;;;;;;;12.96;69.07;100650.28;1716296;82;21033;-48
2022/05/19 06:07:44;;;;;;;6.70;3.70;;;;;;;13.07;68.40;100661.63;1731851;81;21062;-40
2022/05/19 06:10:13;;;;;;;7.60;4.50;;;;;;;13.13;66.35;100660.72;1740462;81;21033;-39
2022/05/19 06:12:40;;;;;;;6.47;4.42;;;;;;;13.15;67.13;100663.77;1738558;82;21083;-41
2022/05/19 06:15:09;;;;;;;8.30;4.25;;;;;;;13.19;66.10;100667.26;1731031;82;21065;-40
2022/05/19 06:17:35;;;;;;;4.92;3.33;;;;;;;13.22;66.67;100662.91;1724045;82;21065;-40
2022/05/19 06:20:05;;;;;;;8.73;3.40;;;;;;;13.28;66.64;100663.32;1739142;82;20996;-41
2022/05/19 06:22:32;;;;;;;9.68;3.87;;;;;;;13.35;65.98;100661.53;1738834;82;21602;-40
2022/05/19 06:24:59;;;;;;;5.10;3.77;;;;;;;13.42;64.58;100660.16;1730840;82;21553;-42
2022/05/19 06:27:27;;;;;;;6.70;3.58;;;;;;;13.47;64.31;100664.95;1730233;81;21117;-49
2022/05/19 06:29:54;;;;;;;8.40;4.20;;;;;;;13.50;64.80;100667.55;1718450;83;20991;-48
2022/05/19 06:32:21;;;;;;;4.33;3.72;;;;;;;13.55;64.82;100668.39;1736522;81;21059;-48
2022/05/19 06:34:48;;;;;;;5.75;3.65;;;;;;;13.62;65.16;100663.97;1728294;82;21489;-48
2022/05/19 06:37:14;;;;;;;9.78;3.75;;;;;;;13.69;63.90;100663.06;1739704;82;21049;-49
2022/05/19 06:39:41;;;;;;;5.00;3.55;;;;;;;13.72;63.28;100666.10;1739660;82;20962;-49
2022/05/19 06:42:14;;;;;;;6.62;3.70;;;;;;;13.76;65.06;100668.70;1736202;82;21070;-48
2022/05/19 06:44:38;;;;;;;8.43;3.52;;;;;;;13.87;62.50;100671.27;1721662;82;21041;-48
2022/05/19 06:47:13;;;;;;;5.03;3.40;;;;;;;13.91;63.44;100672.09;1732168;82;21014;-41
2022/05/19 06:49:37;;;;;;;10.45;4.03;;;;;;;13.95;63.28;100672.51;1727676;82;20958;-40
2022/05/19 06:52:04;;;;;;;6.58;3.02;;;;;;;14.06;63.25;100668.03;1732153;82;21010;-41
2022/05/19 06:54:31;;;;;;;4.12;3.22;;;;;;;14.17;61.75;100671.89;1727040;82;21502;-41
2022/05/19 06:57:01;;;;;;;6.00;3.33;;;;;;;14.23;61.08;100678.42;1729575;83;21053;-41
2022/05/19 06:59:28;;;;;;;11.43;3.40;;;;;;;14.29;62.00;100667.83;1710368;82;21024;-40
2022/05/19 07:01:54;;;;;;;7.28;3.00;;;;;;;14.36;60.53;100674.33;1729781;82;21092;-40
2022/05/19 07:04:21;;;;;;;5.12;2.98;;;;;;;14.43;60.92;100669.00;1730324;82;20990;-41
2022/05/19 07:06:47;;;;;;;3.75;3.33;;;;;;;14.51;60.40;100674.67;1746270;82;21628;-41
2022/05/19 07:09:15;;;;;;;6.37;3.40;;;;;;;14.57;58.34;100665.84;1744567;82;20970;-40
2022/05/19 07:11:41;;;;;;;6.72;3.00;;;;;;;14.59;58.78;100671.50;1731299;82;21646;-41
2022/05/19 07:14:10;;;;;;;7.25;2.92;;;;;;;14.60;58.09;100670.61;1738302;82;21482;-41
2022/05/19 07:16:37;;;;;;;5.15;2.83;;;;;;;14.68;58.00;100673.63;1730773;82;21607;-39
2022/05/19 07:21:49;;;;;;;6.45;2.83;;;;;;;15.02;57.48;100674.12;1726361;83;21059;-41
2022/05/19 07:24:17;;;;;;;7.42;3.37;;;;;;;15.10;56.52;100678.84;1722602;82;20997;-40
2022/05/19 07:26:51;;;;;;;4.70;2.77;;;;;;;15.17;56.92;100674.77;1720993;82;20982;-40
2022/05/19 07:29:18;;;;;;;5.87;2.33;;;;;;;15.29;57.15;100671.11;1726043;82;21010;-39
2022/05/19 07:31:46;;;;;;;2.45;2.25;;;;;;;15.41;55.74;100661.70;1729062;82;21053;-39
2022/05/19 07:34:14;;;;;;;8.63;3.92;;;;;;;15.54;52.31;100670.34;1699000;83;21007;-40
2022/05/19 07:36:41;;;;;;;6.97;2.30;;;;;;;15.62;52.95;100673.76;1702031;83;21072;-40
2022/05/19 07:39:08;;;;;;;5.50;2.50;;;;;;;15.66;53.27;100660.96;1710610;83;21047;-42
2022/05/19 07:41:35;;;;;;;6.20;2.62;;;;;;;15.70;52.31;100674.50;1701822;83;21021;-40
2022/05/19 07:44:03;;;;;;;6.37;2.33;;;;;;;15.73;53.03;100670.97;1694474;83;21061;-40
2022/05/19 07:46:31;;;;;;;5.30;1.87;;;;;;;15.84;53.93;100670.81;1698174;83;21027;-41
2022/05/19 07:48:58;;;;;;;12.05;2.65;;;;;;;15.99;52.45;100685.05;1714582;82;21059;-48
2022/05/19 07:51:36;;;;;;;3.12;2.17;;;;;;;16.09;50.56;100676.55;1700364;82;21102;-47
2022/05/19 07:53:59;;;;;;;4.55;1.90;;;;;;;16.12;48.78;100688.36;1687948;82;21108;-48
2022/05/19 07:56:26;;;;;;;3.05;2.02;;;;;;;16.17;46.85;100682.11;1687474;83;21513;-48
2022/05/19 07:58:53;;;;;;;4.35;2.10;;;;;;;16.14;47.42;100675.58;1694571;83;21061;-48
2022/05/19 08:01:20;;;;;;;4.62;2.10;;;;;;;16.05;47.44;100688.05;1687943;83;21014;-48
2022/05/19 08:03:46;;;;;;;2.67;1.95;;;;;;;15.94;49.67;100680.30;1692527;82;21104;-48
2022/05/19 08:06:13;;;;;;;1.87;1.67;;;;;;;15.87;46.41;100670.30;1693449;83;20981;-49
2022/05/19 08:08:41;;;;;;;4.70;1.40;;;;;;;15.87;46.71;100685.25;1707617;82;21100;-47
2022/05/19 08:11:09;;;;;;;5.20;1.65;;;;;;;15.89;47.22;100676.44;1700926;82;21041;-47
2022/05/19 08:16:22;;;;;;;3.77;1.50;;;;;;;16.04;46.22;100670.47;1695150;83;21014;-48
2022/05/19 08:18:49;;;;;;;5.17;1.42;;;;;;;16.18;45.14;100672.00;1707605;83;21020;-48
2022/05/19 08:21:17;;;;;;;2.35;1.60;;;;;;;16.23;46.43;100664.88;1690364;82;21314;-48
2022/05/19 08:23:47;;;;;;;7.37;1.32;;;;;;;16.27;46.13;100656.89;1693306;84;21505;-47
2022/05/19 08:26:14;;;;;;;3.17;1.57;;;;;;;16.37;47.65;100663.75;1697171;82;21540;-48
2022/05/19 08:28:43;;;;;;;1.95;1.52;;;;;;;16.54;45.71;100664.77;1690315;83;21053;-49
2022/05/19 08:31:14;;;;;;;2.10;1.70;;;;;;;16.60;42.97;100663.33;1691181;82;20969;-48
2022/05/19 08:33:42;;;;;;;3.20;1.67;;;;;;;16.58;43.14;100661.15;1679085;83;21055;-48
2022/05/19 08:36:10;;;;;;;4.15;1.52;;;;;;;16.61;44.68;100669.03;1693909;82;21032;-40
2022/05/19 08:38:38;;;;;;;3.80;1.65;;;;;;;16.62;44.29;100658.42;1693901;82;21041;-48
2022/05/19 08:41:30;;;;;;;4.00;1.90;;;;;;;16.68;46.07;100662.27;1692511;83;21008;-48
2022/05/19 08:44:25;;;;;;;4.20;1.42;;;;;;;16.84;45.66;100669.48;1704556;83;21033;-48
2022/05/19 08:46:53;;;;;;;5.28;2.00;;;;;;;17.03;44.03;100656.77;1691617;83;21064;-49
2022/05/19 08:49:51;;;;;;;5.08;1.92;;;;;;;17.16;43.03;100656.95;1698755;84;21000;-42
2022/05/19 08:52:20;;;;;;;1.85;1.47;;;;;;;17.15;41.83;100650.34;1703452;83;21024;-41
2022/05/19 08:54:49;;;;;;;5.28;2.37;;;;;;;16.97;42.54;100655.57;1713990;82;21002;-42
2022/05/19 08:57:23;;;;;;;5.03;1.45;;;;;;;16.89;43.15;100658.38;1703242;84;21663;-48
2022/05/19 09:00:24;;;;;;;4.15;1.62;;;;;;;16.99;44.23;100659.94;1703576;83;20990;-48
2022/05/19 09:03:10;;;;;;;2.58;1.55;;;;;;;17.18;43.19;100651.63;1688767;83;21062;-40
2022/05/19 09:06:06;;;;;;;3.62;1.77;;;;;;;17.35;42.64;100657.41;1704293;82;20945;-48
2022/05/19 09:09:08;;;;;;;2.00;1.40;;;;;;;17.46;42.12;100643.95;1645912;85;21040;-49
2022/05/19 09:11:49;;;;;;;6.75;1.37;;;;;;;17.55;41.60;100649.88;1635813;86;21164;-40
2022/05/19 09:14:22;;;;;;;7.70;1.65;;;;;;;17.58;40.04;100644.13;1636727;86;21024;-48
2022/05/19 09:16:49;;;;;;;3.92;1.62;;;;;;;17.54;42.31;100646.83;1649785;87;21096;-50
2022/05/19 09:19:25;;;;;;;2.83;1.37;;;;;;;17.57;40.66;100648.55;1614159;87;21053;-50
2022/05/19 09:22:23;;;;;;;2.42;1.65;;;;;;;17.66;41.40;100638.19;1648443;87;21099;-47
2022/05/19 09:24:50;;;;;;;5.12;1.30;;;;;;;17.77;41.23;100636.19;1642517;86;21031;-48
2022/05/19 09:27:19;;;;;;;5.12;1.60;;;;;;;17.90;40.17;100644.69;1662491;85;21094;-48
2022/05/19 09:29:49;;;;;;;5.42;1.27;;;;;;;17.84;40.28;100638.23;1646598;85;21067;-40
2022/05/19 09:32:30;;;;;;;6.00;1.75;;;;;;;17.77;40.69;100658.68;1656856;84;21186;-49
2022/05/19 09:35:09;;;;;;;1.47;1.22;;;;;;;17.67;39.67;100649.18;1628151;86;21111;-48
2022/05/19 09:37:44;;;;;;;6.10;1.25;;;;;;;17.48;39.71;100644.32;1626866;86;21079;-42
2022/05/19 09:40:25;;;;;;;2.75;1.12;;;;;;;17.38;40.97;100636.17;1640434;87;21085;-41
2022/05/19 09:43:06;;;;;;;3.65;1.40;;;;;;;17.41;40.24;100645.38;1646388;86;21093;-41
2022/05/19 09:45:48;;;;;;;5.83;1.80;;;;;;;17.51;39.72;100633.69;1655565;83;21012;-43
2022/05/19 09:48:16;;;;;;;4.83;1.65;;;;;;;17.64;41.02;100637.36;1693064;83;21038;-49
2022/05/19 09:50:48;;;;;;;3.37;1.60;;;;;;;17.64;38.67;100634.27;1682237;84;21010;-48
2022/05/19 09:53:24;;;;;;;3.90;1.30;;;;;;;17.49;39.60;100630.19;1683108;83;21057;-46
2022/05/19 09:56:00;;;;;;;4.05;1.45;;;;;;;17.37;38.32;100632.25;1698593;82;21988;-40
2022/05/19 09:58:30;;;;;;;3.37;1.47;;;;;;;17.29;39.06;100628.46;1700659;83;21109;-41
2022/05/19 10:01:00;;;;;;;3.92;1.30;;;;;;;17.38;40.46;100632.66;1680452;83;21012;-49
2022/05/19 10:03:49;;;;;;;1.40;1.17;;;;;;;17.53;40.55;100634.51;1681793;84;21051;-48
2022/05/19 10:06:20;;;;;;;4.47;2.72;;;;;;;17.70;39.90;100630.14;1688338;83;21007;-40
2022/05/19 10:08:47;;;;;;;2.10;1.70;;;;;;;17.80;38.49;100625.55;1688808;84;21641;-42
2022/05/19 10:11:21;;;;;;;1.67;1.40;;;;;;;17.73;37.88;100625.25;1705343;82;20958;-48
2022/05/19 10:14:06;;;;;;;3.98;1.27;;;;;;;17.73;39.42;100627.44;1709094;82;21118;-48
2022/05/19 10:16:56;;;;;;;2.72;1.25;;;;;;;17.82;37.76;100617.10;1693521;82;21379;-41
2022/05/19 10:19:56;;;;;;;5.12;1.45;;;;;;;17.77;37.96;100615.02;1689409;83;21001;-48
